Lakeview, MI (48850)

3:30 PM EDT on April 25, 2017 (GMT -0400)
Smits Residence | | Change Station

Elev 925 ft 43.40 °N, 85.40 °W | Updated 39 seconds ago

Overcast
Overcast
70.5 °F
Feels Like 76 °F
N
6.0
Wind Variable Wind from SE

Today
High -- | Low -- °F
--% Chance of Precip.
Yesterday
High -- | Low -- °F
Precip. -- in
Pressure 29.72 in
Visibility 10.0 miles
Clouds Mostly Cloudy 3700 ft
Overcast 4500 ft
Heat Index 76 °F
Dew Point 55 °F
Humidity 60%
Rainfall 0.00 in
Snow Depth Not available.
6:42 AM 8:36 PM
Waning Crescent, 1% visible
METAR KRQB 251914Z AUTO 15009G17KT 10SM BKN037 OVC045 20/10 A2972 RMK AO2 T01960104
Pressure 29.72 in
Visibility 10.0 miles
Clouds Mostly Cloudy 3700 ft
Overcast 4500 ft
Heat Index 76 °F
Dew Point 55 °F
Humidity 60%
Rainfall 0.00 in
Snow Depth Not available.
6:42 AM 8:36 PM
Waning Crescent, 1% visible
METAR KRQB 251914Z AUTO 15009G17KT 10SM BKN037 OVC045 20/10 A2972 RMK AO2 T01960104

Get Severe Weather Alerts

Thanks for signing up!

Be on the lookout for a verification email in your inbox.

You'll start receiving the daily forecast at 8 AM.

×

10-Day Weather Forecast

Almanac

Astronomy

Apr. 25, 2017 Rise Set
Actual Time
Civil Twilight
Nautical Twilight
Astronomical Twilight
Moon
Length of Visible Light
Length of Day
Tomorrow will be .
, % of the Moon is Illuminated

Today's Extremes

State Highs State Lows

Community

WunderPhotos

WunderBlog® & News

Nearby

Air Quality

  Air Quality AQ Index Pollutant
Not available.

Snow Depth

Station Depth Elevation

Earthquake Activity

City Distance Mag. Time & Date
Minimum magnitude displayed is 2.5.

Coastal Water Temperatures

Place Temperature

Stations

Nearby Weather Stations

Station Location Temp. Windchill Dew Point Humidity Wind Precip. Elev Updated Type
                   

Watches & Warnings

There are currently no watches in effect.